Time;durP1;ratioP1;P1;durP2;ratioP2;P2;SDS_P1;SDS_P2;PMS_P1;PMS_P2;Temp;Humidity;BMP_temperature;BMP_pressure;BME280_temperature;BME280_humidity;BME280_pressure;Samples;Min_cycle;Max_cycle;Signal;HPM_P1;HPM_P2
2022/07/31 00:00:28;;;;;;;3.00;2.80;;;;;;;;;;5055644;28;20257;-85
2022/07/31 00:02:56;;;;;;;2.70;2.40;;;;;;;;;;5055572;28;20244;-83
2022/07/31 00:05:26;;;;;;;2.25;2.13;;;;;;;;;;5056021;28;20197;-84
2022/07/31 00:07:54;;;;;;;2.53;2.33;;;;;;;;;;5055434;28;20673;-84
2022/07/31 00:10:22;;;;;;;2.00;1.90;;;;;;;;;;5055752;28;20279;-83
2022/07/31 00:12:50;;;;;;;1.95;1.85;;;;;;;;;;5055617;28;20293;-84
2022/07/31 00:15:18;;;;;;;2.63;2.42;;;;;;;;;;5055636;28;20244;-84
2022/07/31 00:17:46;;;;;;;1.67;1.58;;;;;;;;;;5055545;28;20772;-83
2022/07/31 00:20:16;;;;;;;3.45;1.30;;;;;;;;;;5055804;28;20253;-83
2022/07/31 00:22:47;;;;;;;1.33;1.23;;;;;;;;;;5056026;28;20332;-83
2022/07/31 00:25:16;;;;;;;0.98;0.93;;;;;;;;;;5055316;28;20583;-84
2022/07/31 00:27:44;;;;;;;1.27;1.25;;;;;;;;;;5055534;28;20221;-84
2022/07/31 00:30:13;;;;;;;1.67;1.30;;;;;;;;;;5055295;28;20317;-84
2022/07/31 00:32:41;;;;;;;0.93;0.93;;;;;;;;;;5054861;28;20255;-84
2022/07/31 00:35:10;;;;;;;1.45;1.35;;;;;;;;;;5054736;28;20208;-84
2022/07/31 00:37:38;;;;;;;1.30;1.20;;;;;;;;;;5054698;28;20285;-84
2022/07/31 00:40:09;;;;;;;1.63;1.50;;;;;;;;;;5055267;28;20266;-83
2022/07/31 00:42:36;;;;;;;1.10;1.10;;;;;;;;;;5054778;28;20206;-84
2022/07/31 00:45:05;;;;;;;1.00;1.00;;;;;;;;;;5055028;28;20284;-84
2022/07/31 00:47:32;;;;;;;1.42;1.33;;;;;;;;;;5054557;28;20205;-84
2022/07/31 00:50:00;;;;;;;1.00;1.00;;;;;;;;;;5054778;28;20217;-84
2022/07/31 00:52:27;;;;;;;1.40;1.25;;;;;;;;;;5054537;28;20276;-83
2022/07/31 00:54:55;;;;;;;1.05;1.05;;;;;;;;;;5054876;28;20225;-84
2022/07/31 00:57:24;;;;;;;1.40;1.30;;;;;;;;;;5054649;28;20205;-84
2022/07/31 00:59:51;;;;;;;1.20;1.10;;;;;;;;;;5054526;28;20309;-83
2022/07/31 01:02:19;;;;;;;1.48;1.10;;;;;;;;;;5054021;28;20240;-84
2022/07/31 01:04:46;;;;;;;1.10;1.10;;;;;;;;;;5054456;28;20233;-84
2022/07/31 01:07:14;;;;;;;1.15;1.00;;;;;;;;;;5053897;28;20251;-84
2022/07/31 01:09:42;;;;;;;1.02;1.02;;;;;;;;;;5054046;28;20198;-84
2022/07/31 01:12:15;;;;;;;0.75;0.75;;;;;;;;;;5054416;28;20707;-84
2022/07/31 01:14:48;;;;;;;0.90;0.90;;;;;;;;;;5054340;28;20233;-83
2022/07/31 01:17:17;;;;;;;0.82;0.82;;;;;;;;;;5054079;28;20201;-84
2022/07/31 01:19:49;;;;;;;1.00;1.00;;;;;;;;;;5054361;28;20312;-84
2022/07/31 01:22:37;;;;;;;1.08;1.08;;;;;;;;;;5054286;28;20186;-83
2022/07/31 01:25:10;;;;;;;1.10;1.10;;;;;;;;;;5053737;28;20229;-84
2022/07/31 01:27:58;;;;;;;1.10;1.10;;;;;;;;;;5053408;28;20210;-84
2022/07/31 01:30:32;;;;;;;1.05;1.05;;;;;;;;;;5053585;28;20275;-84
2022/07/31 01:33:02;;;;;;;1.25;1.15;;;;;;;;;;5054062;28;20202;-83
2022/07/31 01:35:35;;;;;;;1.80;1.58;;;;;;;;;;5053886;28;20291;-84
2022/07/31 01:38:06;;;;;;;1.00;1.00;;;;;;;;;;5053803;28;20281;-84
2022/07/31 01:40:36;;;;;;;0.90;0.90;;;;;;;;;;5053623;28;20304;-84
2022/07/31 01:43:07;;;;;;;0.95;0.95;;;;;;;;;;5053739;28;20657;-84
2022/07/31 01:45:37;;;;;;;1.05;1.00;;;;;;;;;;5053583;28;20686;-84
2022/07/31 01:48:06;;;;;;;1.30;1.20;;;;;;;;;;5053487;28;20579;-84
2022/07/31 01:50:34;;;;;;;0.80;0.80;;;;;;;;;;5053353;28;20213;-84
2022/07/31 01:53:02;;;;;;;1.40;1.30;;;;;;;;;;5053136;28;20259;-84
2022/07/31 01:55:30;;;;;;;1.10;1.00;;;;;;;;;;5053379;28;20236;-84
2022/07/31 01:57:57;;;;;;;1.05;0.90;;;;;;;;;;5053302;28;20574;-83
2022/07/31 02:00:25;;;;;;;1.15;1.15;;;;;;;;;;5052410;28;20312;-84
2022/07/31 02:02:57;;;;;;;1.00;1.00;;;;;;;;;;5053406;28;20229;-84
2022/07/31 02:05:25;;;;;;;1.00;1.00;;;;;;;;;;5053119;28;20205;-83
2022/07/31 02:07:53;;;;;;;0.95;0.95;;;;;;;;;;5053189;28;20670;-83
2022/07/31 02:10:21;;;;;;;1.10;1.00;;;;;;;;;;5053093;28;20213;-84
2022/07/31 02:12:49;;;;;;;1.10;1.10;;;;;;;;;;5052739;28;20201;-84
2022/07/31 02:15:17;;;;;;;0.85;0.85;;;;;;;;;;5053242;28;20225;-83
2022/07/31 02:17:46;;;;;;;1.02;1.02;;;;;;;;;;5052625;28;20303;-84
2022/07/31 02:20:15;;;;;;;0.73;0.73;;;;;;;;;;5053167;28;20287;-84
2022/07/31 02:22:43;;;;;;;1.17;1.10;;;;;;;;;;5052654;28;20281;-84
2022/07/31 02:25:10;;;;;;;1.13;1.13;;;;;;;;;;5052912;28;20201;-83
2022/07/31 02:27:40;;;;;;;1.52;1.42;;;;;;;;;;5052691;28;20643;-84
2022/07/31 02:30:09;;;;;;;1.10;1.10;;;;;;;;;;5053202;28;20253;-84
2022/07/31 02:32:37;;;;;;;1.73;1.20;;;;;;;;;;5053014;28;20395;-84
2022/07/31 02:35:07;;;;;;;0.90;0.90;;;;;;;;;;5053259;28;20281;-83
2022/07/31 02:37:38;;;;;;;3.45;1.30;;;;;;;;;;5054086;28;20486;-84
2022/07/31 02:40:08;;;;;;;1.48;1.40;;;;;;;;;;5057088;28;20313;-84
2022/07/31 02:42:36;;;;;;;1.42;1.33;;;;;;;;;;5056708;28;20205;-83
2022/07/31 02:45:05;;;;;;;8.57;1.52;;;;;;;;;;5056792;28;20237;-83
2022/07/31 02:47:33;;;;;;;1.98;1.10;;;;;;;;;;5056206;28;20244;-84
2022/07/31 02:50:01;;;;;;;1.10;1.10;;;;;;;;;;5056618;28;20308;-84
2022/07/31 02:52:30;;;;;;;1.42;1.33;;;;;;;;;;5056650;28;20275;-83
2022/07/31 02:55:00;;;;;;;1.10;1.10;;;;;;;;;;5056486;28;20291;-84
2022/07/31 02:57:28;;;;;;;1.27;1.20;;;;;;;;;;5056750;28;20274;-84
2022/07/31 02:59:55;;;;;;;1.42;1.33;;;;;;;;;;5056361;28;20308;-84
2022/07/31 03:02:24;;;;;;;1.42;1.27;;;;;;;;;;5056290;28;20208;-83
2022/07/31 03:04:51;;;;;;;1.10;1.10;;;;;;;;;;5056168;28;20696;-83
2022/07/31 03:07:19;;;;;;;1.27;1.17;;;;;;;;;;5056125;28;20290;-84
2022/07/31 03:09:48;;;;;;;1.52;1.42;;;;;;;;;;5056352;28;20339;-83
2022/07/31 03:12:17;;;;;;;1.40;1.30;;;;;;;;;;5062527;28;20288;-83
2022/07/31 03:14:44;;;;;;;1.20;1.20;;;;;;;;;;5071456;28;20198;-84
2022/07/31 03:17:12;;;;;;;1.67;1.42;;;;;;;;;;5070510;28;20237;-83
2022/07/31 03:19:40;;;;;;;1.52;1.42;;;;;;;;;;5070172;28;20228;-84
2022/07/31 03:22:08;;;;;;;1.45;1.35;;;;;;;;;;5070618;28;20288;-84
2022/07/31 03:24:35;;;;;;;1.65;1.55;;;;;;;;;;5068805;28;20221;-83
2022/07/31 03:27:03;;;;;;;1.55;1.45;;;;;;;;;;5066464;28;20249;-84
2022/07/31 03:29:39;;;;;;;1.42;1.40;;;;;;;;;;5060238;28;20228;-84
2022/07/31 03:32:08;;;;;;;1.50;1.40;;;;;;;;;;5060582;28;20211;-84
2022/07/31 03:34:36;;;;;;;1.35;1.33;;;;;;;;;;5060309;28;20261;-84
2022/07/31 03:37:03;;;;;;;1.45;1.35;;;;;;;;;;5060084;28;20201;-84
2022/07/31 03:39:31;;;;;;;4.20;1.65;;;;;;;;;;5060218;28;20206;-84
2022/07/31 03:41:58;;;;;;;1.92;1.45;;;;;;;;;;5058825;28;20296;-84
2022/07/31 03:44:26;;;;;;;3.05;1.80;;;;;;;;;;5058950;28;20220;-83
2022/07/31 03:46:55;;;;;;;1.88;1.63;;;;;;;;;;5058860;28;20201;-84
2022/07/31 03:49:23;;;;;;;1.40;1.30;;;;;;;;;;5057671;28;20280;-84
2022/07/31 03:51:51;;;;;;;1.38;1.35;;;;;;;;;;5058398;28;20309;-84
2022/07/31 03:54:18;;;;;;;1.67;1.50;;;;;;;;;;5058678;28;20292;-83
2022/07/31 03:56:49;;;;;;;1.65;1.55;;;;;;;;;;5057908;28;20570;-84
2022/07/31 03:59:18;;;;;;;2.67;1.48;;;;;;;;;;5057899;28;20284;-83
2022/07/31 04:01:47;;;;;;;2.15;1.85;;;;;;;;;;5058675;28;20669;-84
2022/07/31 04:04:18;;;;;;;2.72;1.60;;;;;;;;;;5058320;28;20733;-84
2022/07/31 04:06:45;;;;;;;1.50;1.40;;;;;;;;;;5057780;28;20288;-84
2022/07/31 04:09:13;;;;;;;1.50;1.40;;;;;;;;;;5057439;28;20229;-84
2022/07/31 04:11:40;;;;;;;1.60;1.50;;;;;;;;;;5057902;28;20245;-84
2022/07/31 04:14:08;;;;;;;1.60;1.50;;;;;;;;;;5058317;28;20216;-84
2022/07/31 04:16:36;;;;;;;1.23;1.20;;;;;;;;;;5057176;28;20225;-84
2022/07/31 04:19:03;;;;;;;1.30;1.30;;;;;;;;;;5057656;28;20387;-84
2022/07/31 04:21:32;;;;;;;1.30;1.23;;;;;;;;;;5057823;28;20229;-84
2022/07/31 04:24:00;;;;;;;1.20;1.20;;;;;;;;;;5058290;28;20284;-83
2022/07/31 04:26:29;;;;;;;2.10;1.20;;;;;;;;;;5057837;28;20209;-84
2022/07/31 04:28:56;;;;;;;1.50;1.40;;;;;;;;;;5057990;28;20296;-84
2022/07/31 04:31:24;;;;;;;1.80;1.40;;;;;;;;;;5058434;28;20300;-84
2022/07/31 04:33:52;;;;;;;1.52;1.42;;;;;;;;;;5058300;28;20264;-84
2022/07/31 04:36:19;;;;;;;2.60;1.60;;;;;;;;;;5058074;28;20224;-83
2022/07/31 04:38:48;;;;;;;1.25;1.15;;;;;;;;;;5058414;28;20583;-84
2022/07/31 04:41:16;;;;;;;1.40;1.30;;;;;;;;;;5057242;28;20736;-84
2022/07/31 04:43:44;;;;;;;1.60;1.50;;;;;;;;;;5057968;28;20228;-84
2022/07/31 04:46:12;;;;;;;1.27;1.25;;;;;;;;;;5058247;28;20594;-84
2022/07/31 04:48:40;;;;;;;0.95;0.95;;;;;;;;;;5057414;28;20269;-84
2022/07/31 04:51:07;;;;;;;1.13;1.13;;;;;;;;;;5058306;28;20343;-83
2022/07/31 04:53:35;;;;;;;1.20;1.20;;;;;;;;;;5057896;28;20209;-84
2022/07/31 04:58:49;;;;;;;2.10;1.55;;;;;;;;;;5052388;28;20618;-84
2022/07/31 05:01:16;;;;;;;2.35;2.15;;;;;;;;;;5055589;28;20272;-84
2022/07/31 05:03:44;;;;;;;2.28;2.17;;;;;;;;;;5056128;28;20728;-84
2022/07/31 05:06:12;;;;;;;2.17;2.08;;;;;;;;;;5056101;28;20636;-84
2022/07/31 05:08:39;;;;;;;2.70;2.55;;;;;;;;;;5055378;28;20193;-84
2022/07/31 05:11:23;;;;;;;3.28;3.08;;;;;;;;;;5054578;28;20309;-84
2022/07/31 05:13:52;;;;;;;3.22;3.03;;;;;;;;;;5054728;28;20182;-79
2022/07/31 05:16:20;;;;;;;3.15;2.95;;;;;;;;;;5054248;28;20208;-78
2022/07/31 05:18:47;;;;;;;2.65;2.45;;;;;;;;;;5054466;28;20302;-79
2022/07/31 05:21:17;;;;;;;3.63;3.33;;;;;;;;;;5053540;28;20856;-79
2022/07/31 05:23:46;;;;;;;3.08;2.88;;;;;;;;;;5054185;28;20201;-80
2022/07/31 05:26:16;;;;;;;3.30;3.00;;;;;;;;;;5054243;28;20292;-79
2022/07/31 05:28:45;;;;;;;3.40;3.08;;;;;;;;;;5054261;28;20581;-79
2022/07/31 05:31:12;;;;;;;3.50;3.30;;;;;;;;;;5053728;28;20243;-80
2022/07/31 05:33:40;;;;;;;3.03;2.83;;;;;;;;;;5053974;28;20292;-79
2022/07/31 05:36:08;;;;;;;2.90;2.63;;;;;;;;;;5054045;28;20301;-79
2022/07/31 05:38:36;;;;;;;4.15;3.42;;;;;;;;;;5053345;28;20289;-78
2022/07/31 05:41:03;;;;;;;3.22;3.00;;;;;;;;;;5053000;28;20222;-80
2022/07/31 05:43:32;;;;;;;3.60;3.30;;;;;;;;;;5053356;28;20296;-80
2022/07/31 05:46:00;;;;;;;3.50;3.30;;;;;;;;;;5053591;28;20202;-79
2022/07/31 05:48:28;;;;;;;3.60;3.25;;;;;;;;;;5053321;28;20583;-79
2022/07/31 05:50:56;;;;;;;2.95;2.75;;;;;;;;;;5053351;28;20660;-80
2022/07/31 05:53:23;;;;;;;3.70;3.50;;;;;;;;;;5053373;28;20229;-79
2022/07/31 05:55:51;;;;;;;3.90;3.60;;;;;;;;;;5053269;28;20669;-79
2022/07/31 05:58:20;;;;;;;4.65;3.95;;;;;;;;;;5052921;28;20274;-79
2022/07/31 06:00:50;;;;;;;3.53;3.33;;;;;;;;;;5053056;28;20308;-79
2022/07/31 06:03:23;;;;;;;3.85;3.45;;;;;;;;;;5033592;28;20197;-80
2022/07/31 06:05:52;;;;;;;3.95;3.65;;;;;;;;;;5033121;28;20285;-79
2022/07/31 06:08:19;;;;;;;4.05;3.67;;;;;;;;;;5032756;28;20198;-79
2022/07/31 06:10:47;;;;;;;4.60;3.70;;;;;;;;;;5032433;28;20305;-80
2022/07/31 06:13:14;;;;;;;3.75;3.45;;;;;;;;;;5032225;28;20281;-80
2022/07/31 06:15:42;;;;;;;2.85;2.65;;;;;;;;;;5032768;28;20198;-81
2022/07/31 06:18:13;;;;;;;3.97;3.67;;;;;;;;;;5032848;28;20284;-79
2022/07/31 06:20:40;;;;;;;4.97;4.00;;;;;;;;;;5032657;28;20596;-79
2022/07/31 06:23:08;;;;;;;3.25;3.05;;;;;;;;;;5032804;28;20309;-79
2022/07/31 06:25:35;;;;;;;3.33;3.03;;;;;;;;;;5032419;28;20652;-77
2022/07/31 06:28:03;;;;;;;3.72;3.45;;;;;;;;;;5032055;28;20198;-79
2022/07/31 06:30:30;;;;;;;7.40;4.22;;;;;;;;;;5032073;28;20316;-78
2022/07/31 06:32:58;;;;;;;4.65;4.00;;;;;;;;;;5049061;28;20289;-79
2022/07/31 06:35:27;;;;;;;3.25;3.05;;;;;;;;;;5052703;28;20875;-79
2022/07/31 06:37:54;;;;;;;2.70;2.50;;;;;;;;;;5052145;28;20244;-78
2022/07/31 06:40:22;;;;;;;3.83;3.53;;;;;;;;;;5051739;28;20253;-79
2022/07/31 06:42:49;;;;;;;3.92;3.63;;;;;;;;;;5051973;28;20279;-79
2022/07/31 06:45:17;;;;;;;3.38;3.15;;;;;;;;;;5051828;28;20201;-78
2022/07/31 06:47:44;;;;;;;3.90;3.60;;;;;;;;;;5052110;28;20296;-78
2022/07/31 06:50:12;;;;;;;3.08;2.88;;;;;;;;;;5051935;28;20230;-79
2022/07/31 06:52:41;;;;;;;4.50;4.10;;;;;;;;;;5051975;28;20651;-79
2022/07/31 06:55:10;;;;;;;3.75;3.45;;;;;;;;;;5052272;28;20198;-79
2022/07/31 06:57:38;;;;;;;3.95;3.65;;;;;;;;;;5051518;28;20233;-79
2022/07/31 07:00:08;;;;;;;4.22;3.92;;;;;;;;;;5051705;28;20253;-79
2022/07/31 07:02:37;;;;;;;4.63;4.22;;;;;;;;;;5051559;28;20229;-78
2022/07/31 07:05:06;;;;;;;4.95;4.47;;;;;;;;;;5051680;28;20205;-78
2022/07/31 07:07:36;;;;;;;3.83;3.53;;;;;;;;;;5051774;28;20596;-78
2022/07/31 07:10:06;;;;;;;3.80;3.50;;;;;;;;;;5051869;28;20624;-78
2022/07/31 07:12:34;;;;;;;4.10;3.45;;;;;;;;;;5051787;28;20576;-78
2022/07/31 07:15:01;;;;;;;5.85;4.45;;;;;;;;;;5051518;28;20237;-78
2022/07/31 07:17:29;;;;;;;3.95;3.65;;;;;;;;;;5050849;28;20257;-78
2022/07/31 07:19:56;;;;;;;3.47;3.25;;;;;;;;;;5051214;28;20309;-79
2022/07/31 07:22:24;;;;;;;4.05;3.75;;;;;;;;;;5051171;28;20226;-78
2022/07/31 07:24:51;;;;;;;3.95;3.65;;;;;;;;;;5053098;28;20209;-78
2022/07/31 07:27:20;;;;;;;2.78;2.60;;;;;;;;;;5054642;28;20690;-78
2022/07/31 07:29:47;;;;;;;2.92;2.72;;;;;;;;;;5054705;28;20597;-79
2022/07/31 07:32:15;;;;;;;3.40;3.08;;;;;;;;;;5054650;28;20233;-78
2022/07/31 07:34:43;;;;;;;3.45;3.20;;;;;;;;;;5054746;28;20665;-79
2022/07/31 07:37:10;;;;;;;4.38;3.60;;;;;;;;;;5054811;28;20704;-79
2022/07/31 07:39:38;;;;;;;5.85;3.45;;;;;;;;;;5054530;28;20237;-78
2022/07/31 07:42:05;;;;;;;3.17;2.97;;;;;;;;;;5054401;28;20309;-79
2022/07/31 07:44:34;;;;;;;3.05;2.78;;;;;;;;;;5054776;28;20202;-78
2022/07/31 07:47:01;;;;;;;3.47;3.28;;;;;;;;;;5054367;28;20255;-79
2022/07/31 07:49:29;;;;;;;3.65;3.05;;;;;;;;;;5036341;28;20201;-79
2022/07/31 07:51:57;;;;;;;3.47;3.28;;;;;;;;;;5034938;28;20293;-78
2022/07/31 07:54:24;;;;;;;4.30;3.08;;;;;;;;;;5034432;28;20297;-79
2022/07/31 07:56:53;;;;;;;3.55;3.33;;;;;;;;;;5034777;28;20217;-78
2022/07/31 07:59:21;;;;;;;5.05;3.15;;;;;;;;;;5034955;28;20581;-78
2022/07/31 08:01:50;;;;;;;3.78;2.83;;;;;;;;;;5042371;28;20304;-79
2022/07/31 08:04:17;;;;;;;2.72;2.53;;;;;;;;;;5054354;28;20734;-79
2022/07/31 08:06:44;;;;;;;2.95;2.70;;;;;;;;;;5054085;28;20225;-79
2022/07/31 08:09:12;;;;;;;2.17;2.00;;;;;;;;;;5054026;28;20237;-79
2022/07/31 08:11:39;;;;;;;2.50;2.30;;;;;;;;;;5054259;28;20316;-79
2022/07/31 08:14:07;;;;;;;2.50;2.30;;;;;;;;;;5054701;28;20292;-79
2022/07/31 08:16:34;;;;;;;4.13;2.72;;;;;;;;;;5054018;28;20237;-79
2022/07/31 08:19:04;;;;;;;2.70;2.50;;;;;;;;;;5054039;28;20292;-79
2022/07/31 08:21:33;;;;;;;2.13;1.92;;;;;;;;;;5053581;28;20332;-79
2022/07/31 08:24:01;;;;;;;2.22;2.13;;;;;;;;;;5053749;28;20263;-79
2022/07/31 08:27:22;;;;;;;3.17;1.90;;;;;;;;;;5054054;28;20252;-78
2022/07/31 08:29:16;;;;;;;1.80;1.70;;;;;;;;;;5053508;28;20636;-79
2022/07/31 08:31:44;;;;;;;3.03;2.30;;;;;;;;;;5053522;28;20256;-79
2022/07/31 08:34:13;;;;;;;2.15;1.95;;;;;;;;;;5053751;28;20200;-79
2022/07/31 08:36:40;;;;;;;1.75;1.65;;;;;;;;;;5053318;28;20742;-80
2022/07/31 08:39:08;;;;;;;1.98;1.88;;;;;;;;;;5053857;28;20201;-80
2022/07/31 08:41:39;;;;;;;2.78;2.28;;;;;;;;;;5053557;28;20380;-79
2022/07/31 08:44:07;;;;;;;2.15;1.95;;;;;;;;;;5053016;28;20620;-79
2022/07/31 08:46:38;;;;;;;1.58;1.40;;;;;;;;;;5053413;28;20302;-80
2022/07/31 08:49:08;;;;;;;1.65;1.52;;;;;;;;;;5053615;28;20292;-79
2022/07/31 08:51:39;;;;;;;3.90;2.67;;;;;;;;;;5053265;28;20245;-80
2022/07/31 08:54:10;;;;;;;1.83;1.73;;;;;;;;;;5052978;28;20208;-79
2022/07/31 08:56:39;;;;;;;1.88;1.77;;;;;;;;;;5053220;28;20619;-78
2022/07/31 08:59:07;;;;;;;2.42;1.80;;;;;;;;;;5053356;28;20296;-79
2022/07/31 09:01:37;;;;;;;1.67;1.58;;;;;;;;;;5053519;28;20225;-79
2022/07/31 09:04:05;;;;;;;2.38;1.67;;;;;;;;;;5053097;28;20218;-79
2022/07/31 09:06:33;;;;;;;2.10;1.90;;;;;;;;;;5053114;28;20288;-79
2022/07/31 09:09:01;;;;;;;1.65;1.55;;;;;;;;;;5053777;28;20288;-80
2022/07/31 09:11:29;;;;;;;2.05;1.90;;;;;;;;;;5053206;28;20308;-80
2022/07/31 09:13:59;;;;;;;1.60;1.50;;;;;;;;;;5053322;28;20271;-79
2022/07/31 09:16:27;;;;;;;1.30;1.30;;;;;;;;;;5053464;28;20665;-80
2022/07/31 09:19:00;;;;;;;1.70;1.60;;;;;;;;;;5053273;28;20208;-80
2022/07/31 09:21:37;;;;;;;1.92;1.83;;;;;;;;;;5053355;28;20304;-80
2022/07/31 09:24:09;;;;;;;2.08;1.88;;;;;;;;;;5053413;28;20315;-80
2022/07/31 09:26:39;;;;;;;1.92;1.83;;;;;;;;;;5053090;28;20205;-79
2022/07/31 09:29:10;;;;;;;2.13;2.03;;;;;;;;;;5052672;28;20259;-79
2022/07/31 09:31:38;;;;;;;2.15;2.05;;;;;;;;;;5053216;28;20217;-80
2022/07/31 09:34:07;;;;;;;1.67;1.58;;;;;;;;;;5053534;28;20285;-78
2022/07/31 09:36:34;;;;;;;1.70;1.40;;;;;;;;;;5052791;28;20205;-79
2022/07/31 09:39:02;;;;;;;1.42;1.33;;;;;;;;;;5053133;28;20237;-79
2022/07/31 09:41:31;;;;;;;1.45;1.35;;;;;;;;;;5052987;28;20304;-79
2022/07/31 09:44:01;;;;;;;1.42;1.30;;;;;;;;;;5052461;28;20465;-80
2022/07/31 09:46:39;;;;;;;1.92;1.83;;;;;;;;;;5051942;28;20241;-79
2022/07/31 09:49:07;;;;;;;1.52;1.42;;;;;;;;;;5053606;28;20627;-80
2022/07/31 09:51:39;;;;;;;1.55;1.45;;;;;;;;;;5052733;28;20308;-80
2022/07/31 09:54:07;;;;;;;1.83;1.73;;;;;;;;;;5052969;28;20202;-79
2022/07/31 09:56:36;;;;;;;1.95;1.85;;;;;;;;;;5053230;28;20240;-80
2022/07/31 09:59:05;;;;;;;1.98;1.88;;;;;;;;;;5053182;28;20753;-80
2022/07/31 10:01:35;;;;;;;1.40;1.30;;;;;;;;;;5053322;28;20479;-79
2022/07/31 10:04:04;;;;;;;2.13;2.03;;;;;;;;;;5052979;28;20221;-80
2022/07/31 10:06:32;;;;;;;2.15;1.95;;;;;;;;;;5052589;28;20198;-79
2022/07/31 10:09:01;;;;;;;2.22;2.10;;;;;;;;;;5053305;28;20304;-80
2022/07/31 10:11:29;;;;;;;3.30;2.00;;;;;;;;;;5053037;28;20784;-79
2022/07/31 10:14:02;;;;;;;2.75;2.55;;;;;;;;;;5047718;28;20640;-79
2022/07/31 10:16:35;;;;;;;3.28;2.10;;;;;;;;;;5052328;28;20240;-79
2022/07/31 10:19:10;;;;;;;2.10;1.90;;;;;;;;;;5052482;28;20255;-80
2022/07/31 10:21:41;;;;;;;2.17;2.08;;;;;;;;;;5047014;28;20224;-79
2022/07/31 10:24:11;;;;;;;1.90;1.80;;;;;;;;;;5032428;28;20253;-80
2022/07/31 10:26:39;;;;;;;1.90;1.65;;;;;;;;;;5032138;28;20210;-80
2022/07/31 10:29:08;;;;;;;1.92;1.83;;;;;;;;;;5032540;28;20577;-80
2022/07/31 10:31:36;;;;;;;2.15;1.95;;;;;;;;;;5037083;28;20235;-80
2022/07/31 10:34:03;;;;;;;2.08;1.80;;;;;;;;;;5032143;28;20563;-79
2022/07/31 10:36:37;;;;;;;2.25;2.15;;;;;;;;;;5032287;28;20346;-79
2022/07/31 10:39:14;;;;;;;1.80;1.70;;;;;;;;;;5032531;28;20289;-79
2022/07/31 10:41:49;;;;;;;1.60;1.50;;;;;;;;;;5032425;28;20313;-79
2022/07/31 10:44:23;;;;;;;1.70;1.60;;;;;;;;;;5031810;28;20328;-79
2022/07/31 10:46:50;;;;;;;2.00;1.90;;;;;;;;;;5032620;28;20633;-79
2022/07/31 10:49:18;;;;;;;1.98;1.70;;;;;;;;;;5032461;28;20873;-80
2022/07/31 10:51:49;;;;;;;1.63;1.52;;;;;;;;;;5032111;28;20272;-80
2022/07/31 10:54:17;;;;;;;1.88;1.67;;;;;;;;;;5032215;28;20285;-79
2022/07/31 10:56:47;;;;;;;2.10;2.00;;;;;;;;;;5031876;28;20289;-79
2022/07/31 10:59:15;;;;;;;2.35;2.17;;;;;;;;;;5034601;28;20204;-79
2022/07/31 11:01:48;;;;;;;2.30;2.10;;;;;;;;;;5043509;28;20236;-80
2022/07/31 11:04:27;;;;;;;1.98;1.88;;;;;;;;;;5056520;28;20316;-80
2022/07/31 11:06:55;;;;;;;1.92;1.83;;;;;;;;;;5055292;28;20198;-80
2022/07/31 11:09:23;;;;;;;2.08;1.98;;;;;;;;;;5055666;28;20692;-80
2022/07/31 11:11:51;;;;;;;1.70;1.60;;;;;;;;;;5055857;28;20304;-80
2022/07/31 11:14:23;;;;;;;1.40;1.30;;;;;;;;;;5055835;28;20201;-79
2022/07/31 11:16:54;;;;;;;2.22;2.03;;;;;;;;;;5056403;28;20288;-78
2022/07/31 11:19:22;;;;;;;5.82;2.20;;;;;;;;;;5055393;28;20388;-79
2022/07/31 11:21:49;;;;;;;1.67;1.58;;;;;;;;;;5055607;28;20232;-80
2022/07/31 11:24:19;;;;;;;1.58;1.48;;;;;;;;;;5055349;28;20364;-79
2022/07/31 11:26:50;;;;;;;2.17;2.05;;;;;;;;;;5055487;28;20248;-79
2022/07/31 11:29:28;;;;;;;1.80;1.70;;;;;;;;;;5055115;28;20277;-80
2022/07/31 11:32:00;;;;;;;1.77;1.67;;;;;;;;;;5054949;28;20279;-79
2022/07/31 11:34:28;;;;;;;1.70;1.60;;;;;;;;;;5055260;28;20205;-80
2022/07/31 11:36:57;;;;;;;1.83;1.73;;;;;;;;;;5054641;28;20236;-80
2022/07/31 11:39:26;;;;;;;1.60;1.50;;;;;;;;;;5055245;28;20292;-80
2022/07/31 11:41:53;;;;;;;2.85;1.77;;;;;;;;;;5055511;28;20601;-80
2022/07/31 11:44:22;;;;;;;1.65;1.55;;;;;;;;;;5054948;28;20704;-80
2022/07/31 11:46:50;;;;;;;1.35;1.35;;;;;;;;;;5054857;28;20190;-80
2022/07/31 11:49:22;;;;;;;1.58;1.48;;;;;;;;;;5055346;28;20275;-79
2022/07/31 11:51:50;;;;;;;1.70;1.60;;;;;;;;;;5054819;28;20217;-80
2022/07/31 11:54:24;;;;;;;1.80;1.70;;;;;;;;;;5055429;28;20225;-79
2022/07/31 11:56:53;;;;;;;1.60;1.50;;;;;;;;;;5054841;28;20281;-79
2022/07/31 11:59:30;;;;;;;1.58;1.48;;;;;;;;;;5055503;28;20666;-79
2022/07/31 12:02:05;;;;;;;2.10;1.42;;;;;;;;;;5055388;28;20201;-80
2022/07/31 12:04:36;;;;;;;2.13;2.03;;;;;;;;;;5054975;28;20648;-79
2022/07/31 12:07:04;;;;;;;1.90;1.80;;;;;;;;;;5054354;28;20212;-79
2022/07/31 12:09:33;;;;;;;1.55;1.45;;;;;;;;;;5054535;28;20392;-80
2022/07/31 12:12:01;;;;;;;1.70;1.60;;;;;;;;;;5055129;28;20193;-81
2022/07/31 12:14:31;;;;;;;1.35;1.30;;;;;;;;;;5054701;28;20264;-80
2022/07/31 12:16:58;;;;;;;1.63;1.52;;;;;;;;;;5054752;28;20193;-80
2022/07/31 12:19:27;;;;;;;1.63;1.52;;;;;;;;;;5054207;28;20289;-80
2022/07/31 12:21:56;;;;;;;1.75;1.65;;;;;;;;;;5055149;28;20635;-80
2022/07/31 12:24:25;;;;;;;1.88;1.75;;;;;;;;;;5055324;28;20296;-81
2022/07/31 12:26:58;;;;;;;1.20;1.20;;;;;;;;;;5054770;28;20230;-80
2022/07/31 12:29:32;;;;;;;1.70;1.60;;;;;;;;;;5055081;28;20288;-80
2022/07/31 12:32:00;;;;;;;1.42;1.33;;;;;;;;;;5054539;28;20259;-79
2022/07/31 12:34:30;;;;;;;1.70;1.60;;;;;;;;;;5054808;28;20289;-80
2022/07/31 12:37:01;;;;;;;1.77;1.67;;;;;;;;;;5054849;28;20216;-80
2022/07/31 12:39:29;;;;;;;1.40;1.20;;;;;;;;;;5054733;28;20210;-79
2022/07/31 12:41:57;;;;;;;1.75;1.65;;;;;;;;;;5054588;28;20412;-78
2022/07/31 12:44:25;;;;;;;1.88;1.77;;;;;;;;;;5054336;28;20614;-79
2022/07/31 12:46:52;;;;;;;1.45;1.38;;;;;;;;;;5056693;28;20314;-80
2022/07/31 12:49:20;;;;;;;1.30;1.30;;;;;;;;;;5061962;28;20288;-80
2022/07/31 12:51:47;;;;;;;2.08;1.98;;;;;;;;;;5059585;28;20285;-79
2022/07/31 12:54:17;;;;;;;1.80;1.70;;;;;;;;;;5058446;28;20759;-79
2022/07/31 12:56:46;;;;;;;1.95;1.80;;;;;;;;;;5060926;28;20257;-80
2022/07/31 12:59:14;;;;;;;1.60;1.50;;;;;;;;;;5057335;28;20297;-79
2022/07/31 13:01:41;;;;;;;1.63;1.52;;;;;;;;;;5055243;28;20249;-78
2022/07/31 13:04:09;;;;;;;1.40;1.30;;;;;;;;;;5054900;28;20265;-80
2022/07/31 13:06:37;;;;;;;2.08;1.90;;;;;;;;;;5054832;28;20218;-80
2022/07/31 13:09:05;;;;;;;1.55;1.45;;;;;;;;;;5054292;28;20229;-80
2022/07/31 13:11:34;;;;;;;1.60;1.50;;;;;;;;;;5054393;28;20257;-79
2022/07/31 13:14:01;;;;;;;1.65;1.55;;;;;;;;;;5054331;28;20296;-79
2022/07/31 13:16:29;;;;;;;2.03;1.92;;;;;;;;;;5053633;28;20290;-80
2022/07/31 13:18:56;;;;;;;1.80;1.70;;;;;;;;;;5053995;28;20261;-79
2022/07/31 13:21:25;;;;;;;1.45;1.40;;;;;;;;;;5054566;28;20778;-80
2022/07/31 13:23:53;;;;;;;1.48;1.38;;;;;;;;;;5053808;28;20255;-80
2022/07/31 13:26:21;;;;;;;1.52;1.42;;;;;;;;;;5042197;28;20230;-80
2022/07/31 13:28:50;;;;;;;1.77;1.67;;;;;;;;;;5033034;28;20206;-79
2022/07/31 13:31:17;;;;;;;1.58;1.50;;;;;;;;;;5037806;28;20324;-79
2022/07/31 13:33:45;;;;;;;2.20;2.03;;;;;;;;;;5053686;28;20202;-80
2022/07/31 13:36:12;;;;;;;1.38;1.38;;;;;;;;;;5053088;28;20201;-79
2022/07/31 13:38:40;;;;;;;1.45;1.35;;;;;;;;;;5052753;28;20233;-79
2022/07/31 13:41:29;;;;;;;1.90;1.80;;;;;;;;;;5053422;28;20319;-81
2022/07/31 13:43:59;;;;;;;1.70;1.60;;;;;;;;;;5053331;28;20209;-79
2022/07/31 13:46:27;;;;;;;1.60;1.50;;;;;;;;;;5053395;28;20312;-78
2022/07/31 13:48:58;;;;;;;1.25;1.15;;;;;;;;;;5053772;28;20296;-80
2022/07/31 13:51:25;;;;;;;1.70;1.60;;;;;;;;;;5053717;28;20709;-79
2022/07/31 13:53:53;;;;;;;1.33;1.30;;;;;;;;;;5053151;28;20640;-79
2022/07/31 13:56:22;;;;;;;1.67;1.58;;;;;;;;;;5053303;28;20225;-80
2022/07/31 13:58:50;;;;;;;1.35;1.33;;;;;;;;;;5052904;28;20292;-80
2022/07/31 14:01:19;;;;;;;1.40;1.30;;;;;;;;;;5053261;28;20227;-79
2022/07/31 14:03:47;;;;;;;1.65;1.58;;;;;;;;;;5052999;28;20233;-79
2022/07/31 14:06:14;;;;;;;1.60;1.50;;;;;;;;;;5052196;28;20644;-77
2022/07/31 14:08:42;;;;;;;1.50;1.40;;;;;;;;;;5052779;28;20296;-80
2022/07/31 14:11:09;;;;;;;1.60;1.50;;;;;;;;;;5052816;28;20320;-80
2022/07/31 14:13:37;;;;;;;1.20;1.20;;;;;;;;;;5053171;28;20292;-79
2022/07/31 14:16:05;;;;;;;1.30;1.30;;;;;;;;;;5052363;28;20292;-79
2022/07/31 14:18:34;;;;;;;1.33;1.23;;;;;;;;;;5052657;28;20205;-79
2022/07/31 14:21:01;;;;;;;1.10;1.10;;;;;;;;;;5053083;28;20312;-79
2022/07/31 14:23:29;;;;;;;1.23;1.23;;;;;;;;;;5052854;28;20647;-79
2022/07/31 14:25:56;;;;;;;2.35;1.45;;;;;;;;;;5052905;28;20241;-80
2022/07/31 14:28:26;;;;;;;1.70;1.60;;;;;;;;;;5052520;28;20206;-80
2022/07/31 14:30:53;;;;;;;1.25;1.25;;;;;;;;;;5052596;28;20235;-79
2022/07/31 14:33:21;;;;;;;1.40;1.40;;;;;;;;;;5054157;28;20198;-80
2022/07/31 14:35:50;;;;;;;1.27;1.25;;;;;;;;;;5057435;28;20227;-80
2022/07/31 14:38:17;;;;;;;1.58;1.48;;;;;;;;;;5057280;28;20626;-79
2022/07/31 14:40:45;;;;;;;1.20;1.20;;;;;;;;;;5057318;28;20230;-79
2022/07/31 14:43:12;;;;;;;1.17;1.17;;;;;;;;;;5057241;28;20308;-80
2022/07/31 14:45:40;;;;;;;1.27;1.17;;;;;;;;;;5056554;28;20292;-80
2022/07/31 14:48:07;;;;;;;1.48;1.38;;;;;;;;;;5056351;28;20225;-80
2022/07/31 14:50:37;;;;;;;1.60;1.48;;;;;;;;;;5056933;28;20308;-80
2022/07/31 14:53:09;;;;;;;1.48;1.38;;;;;;;;;;5056571;28;20240;-80
2022/07/31 14:55:37;;;;;;;1.70;1.60;;;;;;;;;;5057090;28;20288;-80